sensor_id;sensor_type;location;lat;lon;timestamp;temperature;humidity
6293;DHT22;3179;54.350;10.102;2023-04-01T00:01:07;11.60;99.90
6293;DHT22;3179;54.350;10.102;2023-04-01T00:03:34;11.60;99.90
6293;DHT22;3179;54.350;10.102;2023-04-01T00:06:03;11.60;99.90
6293;DHT22;3179;54.350;10.102;2023-04-01T00:08:31;11.50;99.90
6293;DHT22;3179;54.350;10.102;2023-04-01T00:10:58;11.50;99.90
6293;DHT22;3179;54.350;10.102;2023-04-01T00:13:26;11.40;99.90
6293;DHT22;3179;54.350;10.102;2023-04-01T00:15:53;11.40;99.90
6293;DHT22;3179;54.350;10.102;2023-04-01T00:18:20;11.30;99.90
6293;DHT22;3179;54.350;10.102;2023-04-01T00:20:49;11.30;99.90
6293;DHT22;3179;54.350;10.102;2023-04-01T00:23:16;11.20;99.90
6293;DHT22;3179;54.350;10.102;2023-04-01T00:25:45;11.20;99.90
6293;DHT22;3179;54.350;10.102;2023-04-01T00:28:15;11.20;99.90
6293;DHT22;3179;54.350;10.102;2023-04-01T00:30:42;11.20;99.90
6293;DHT22;3179;54.350;10.102;2023-04-01T00:33:09;11.20;99.90
6293;DHT22;3179;54.350;10.102;2023-04-01T00:35:36;11.20;99.90
6293;DHT22;3179;54.350;10.102;2023-04-01T00:38:03;11.20;99.90
6293;DHT22;3179;54.350;10.102;2023-04-01T00:40:32;11.20;99.90
6293;DHT22;3179;54.350;10.102;2023-04-01T00:43:01;11.20;99.90
6293;DHT22;3179;54.350;10.102;2023-04-01T00:45:32;11.20;99.90
6293;DHT22;3179;54.350;10.102;2023-04-01T00:48:03;11.10;99.90
6293;DHT22;3179;54.350;10.102;2023-04-01T00:50:32;11.00;99.90
6293;DHT22;3179;54.350;10.102;2023-04-01T00:53:00;10.90;99.90
6293;DHT22;3179;54.350;10.102;2023-04-01T00:55:30;10.80;99.90
6293;DHT22;3179;54.350;10.102;2023-04-01T00:58:00;10.80;99.90
6293;DHT22;3179;54.350;10.102;2023-04-01T01:00:28;10.80;99.90
6293;DHT22;3179;54.350;10.102;2023-04-01T01:02:57;10.80;99.90
6293;DHT22;3179;54.350;10.102;2023-04-01T01:05:38;10.80;99.90
6293;DHT22;3179;54.350;10.102;2023-04-01T01:08:15;10.80;99.90
6293;DHT22;3179;54.350;10.102;2023-04-01T01:10:46;10.80;99.90
6293;DHT22;3179;54.350;10.102;2023-04-01T01:13:18;10.80;99.90
6293;DHT22;3179;54.350;10.102;2023-04-01T01:15:54;10.80;99.90
6293;DHT22;3179;54.350;10.102;2023-04-01T01:18:29;10.80;99.90
6293;DHT22;3179;54.350;10.102;2023-04-01T01:24:26;10.60;99.90
6293;DHT22;3179;54.350;10.102;2023-04-01T01:27:03;10.60;99.90
6293;DHT22;3179;54.350;10.102;2023-04-01T01:33:06;10.50;99.90
6293;DHT22;3179;54.350;10.102;2023-04-01T01:35:40;10.50;99.90
6293;DHT22;3179;54.350;10.102;2023-04-01T01:38:11;10.40;99.90
6293;DHT22;3179;54.350;10.102;2023-04-01T01:40:42;10.50;99.90
6293;DHT22;3179;54.350;10.102;2023-04-01T01:43:14;10.50;99.90
6293;DHT22;3179;54.350;10.102;2023-04-01T01:45:46;10.50;99.90
6293;DHT22;3179;54.350;10.102;2023-04-01T01:48:14;10.40;99.90
6293;DHT22;3179;54.350;10.102;2023-04-01T01:50:44;10.40;99.90
6293;DHT22;3179;54.350;10.102;2023-04-01T01:53:15;10.40;99.90
6293;DHT22;3179;54.350;10.102;2023-04-01T01:55:43;10.30;99.90
6293;DHT22;3179;54.350;10.102;2023-04-01T01:58:14;10.30;99.90
6293;DHT22;3179;54.350;10.102;2023-04-01T02:00:46;10.20;99.90
6293;DHT22;3179;54.350;10.102;2023-04-01T02:03:15;10.30;99.90
6293;DHT22;3179;54.350;10.102;2023-04-01T02:05:44;10.10;99.90
6293;DHT22;3179;54.350;10.102;2023-04-01T02:08:14;10.10;99.90
6293;DHT22;3179;54.350;10.102;2023-04-01T02:10:48;10.20;99.90
6293;DHT22;3179;54.350;10.102;2023-04-01T02:13:18;10.10;99.90
6293;DHT22;3179;54.350;10.102;2023-04-01T02:15:48;10.10;99.90
6293;DHT22;3179;54.350;10.102;2023-04-01T02:18:18;10.20;99.90
6293;DHT22;3179;54.350;10.102;2023-04-01T02:20:47;10.10;99.90
6293;DHT22;3179;54.350;10.102;2023-04-01T02:23:16;10.10;99.90
6293;DHT22;3179;54.350;10.102;2023-04-01T02:25:43;10.20;99.90
6293;DHT22;3179;54.350;10.102;2023-04-01T02:28:16;10.20;99.90
6293;DHT22;3179;54.350;10.102;2023-04-01T02:30:56;10.00;99.90
6293;DHT22;3179;54.350;10.102;2023-04-01T02:33:24;10.00;99.90
6293;DHT22;3179;54.350;10.102;2023-04-01T02:35:53;10.00;99.90
6293;DHT22;3179;54.350;10.102;2023-04-01T02:38:20;10.00;99.90
6293;DHT22;3179;54.350;10.102;2023-04-01T02:40:49;10.00;99.90
6293;DHT22;3179;54.350;10.102;2023-04-01T02:43:17;9.80;99.90
6293;DHT22;3179;54.350;10.102;2023-04-01T02:45:44;9.80;99.90
6293;DHT22;3179;54.350;10.102;2023-04-01T02:48:11;9.80;99.90
6293;DHT22;3179;54.350;10.102;2023-04-01T02:50:38;9.80;99.90
6293;DHT22;3179;54.350;10.102;2023-04-01T02:53:07;9.80;99.90
6293;DHT22;3179;54.350;10.102;2023-04-01T02:55:34;9.80;99.90
6293;DHT22;3179;54.350;10.102;2023-04-01T02:58:01;9.70;99.90
6293;DHT22;3179;54.350;10.102;2023-04-01T03:00:28;9.70;99.90
6293;DHT22;3179;54.350;10.102;2023-04-01T03:02:54;9.70;99.90
6293;DHT22;3179;54.350;10.102;2023-04-01T03:05:22;9.60;99.90
6293;DHT22;3179;54.350;10.102;2023-04-01T03:07:49;9.60;99.90
6293;DHT22;3179;54.350;10.102;2023-04-01T03:10:17;9.70;99.90
6293;DHT22;3179;54.350;10.102;2023-04-01T03:12:44;9.70;99.90
6293;DHT22;3179;54.350;10.102;2023-04-01T03:15:12;9.70;99.90
6293;DHT22;3179;54.350;10.102;2023-04-01T03:17:40;9.60;99.90
6293;DHT22;3179;54.350;10.102;2023-04-01T03:20:08;9.60;99.90
6293;DHT22;3179;54.350;10.102;2023-04-01T03:22:36;9.60;99.90
6293;DHT22;3179;54.350;10.102;2023-04-01T03:25:03;9.50;99.90
6293;DHT22;3179;54.350;10.102;2023-04-01T03:27:32;9.50;99.90
6293;DHT22;3179;54.350;10.102;2023-04-01T03:29:58;9.50;99.90
6293;DHT22;3179;54.350;10.102;2023-04-01T03:32:25;9.50;99.90
6293;DHT22;3179;54.350;10.102;2023-04-01T03:34:52;9.50;99.90
6293;DHT22;3179;54.350;10.102;2023-04-01T03:37:19;9.50;99.90
6293;DHT22;3179;54.350;10.102;2023-04-01T03:39:46;9.50;99.90
6293;DHT22;3179;54.350;10.102;2023-04-01T03:42:13;9.40;99.90
6293;DHT22;3179;54.350;10.102;2023-04-01T03:44:42;9.40;99.90
6293;DHT22;3179;54.350;10.102;2023-04-01T03:47:08;9.30;99.90
6293;DHT22;3179;54.350;10.102;2023-04-01T03:49:35;9.30;99.90
6293;DHT22;3179;54.350;10.102;2023-04-01T03:52:02;9.30;99.90
6293;DHT22;3179;54.350;10.102;2023-04-01T03:54:29;9.20;99.90
6293;DHT22;3179;54.350;10.102;2023-04-01T03:56:56;9.20;99.90
6293;DHT22;3179;54.350;10.102;2023-04-01T03:59:23;9.20;99.90
6293;DHT22;3179;54.350;10.102;2023-04-01T04:01:51;9.20;99.90
6293;DHT22;3179;54.350;10.102;2023-04-01T04:04:19;9.20;99.90
6293;DHT22;3179;54.350;10.102;2023-04-01T04:06:47;9.10;99.90
6293;DHT22;3179;54.350;10.102;2023-04-01T04:09:13;9.10;99.90
6293;DHT22;3179;54.350;10.102;2023-04-01T04:11:40;9.10;99.90
6293;DHT22;3179;54.350;10.102;2023-04-01T04:14:07;9.10;99.90
6293;DHT22;3179;54.350;10.102;2023-04-01T04:16:35;9.00;99.90
6293;DHT22;3179;54.350;10.102;2023-04-01T04:19:04;9.00;99.90
6293;DHT22;3179;54.350;10.102;2023-04-01T04:21:31;8.90;99.90
6293;DHT22;3179;54.350;10.102;2023-04-01T04:23:58;8.90;99.90
6293;DHT22;3179;54.350;10.102;2023-04-01T04:26:26;8.90;99.90
6293;DHT22;3179;54.350;10.102;2023-04-01T04:28:54;9.10;99.90
6293;DHT22;3179;54.350;10.102;2023-04-01T04:31:21;9.10;99.90
6293;DHT22;3179;54.350;10.102;2023-04-01T04:33:48;9.10;99.90
6293;DHT22;3179;54.350;10.102;2023-04-01T04:36:18;9.10;99.90
6293;DHT22;3179;54.350;10.102;2023-04-01T04:38:45;9.10;99.90
6293;DHT22;3179;54.350;10.102;2023-04-01T04:41:13;9.10;99.90
6293;DHT22;3179;54.350;10.102;2023-04-01T04:43:40;9.10;99.90
6293;DHT22;3179;54.350;10.102;2023-04-01T04:46:07;9.10;99.90
6293;DHT22;3179;54.350;10.102;2023-04-01T04:48:35;9.00;99.90
6293;DHT22;3179;54.350;10.102;2023-04-01T04:51:02;9.00;99.90
6293;DHT22;3179;54.350;10.102;2023-04-01T04:53:30;8.90;99.90
6293;DHT22;3179;54.350;10.102;2023-04-01T04:55:57;8.90;99.90
6293;DHT22;3179;54.350;10.102;2023-04-01T04:58:24;8.90;99.90
6293;DHT22;3179;54.350;10.102;2023-04-01T05:00:51;8.80;99.90
6293;DHT22;3179;54.350;10.102;2023-04-01T05:03:17;8.80;99.90
6293;DHT22;3179;54.350;10.102;2023-04-01T05:05:49;8.70;99.90
6293;DHT22;3179;54.350;10.102;2023-04-01T05:08:16;8.90;99.90
6293;DHT22;3179;54.350;10.102;2023-04-01T05:10:44;8.90;99.90
6293;DHT22;3179;54.350;10.102;2023-04-01T05:13:11;8.90;99.90
6293;DHT22;3179;54.350;10.102;2023-04-01T05:15:38;8.90;99.90
6293;DHT22;3179;54.350;10.102;2023-04-01T05:18:05;8.90;99.90
6293;DHT22;3179;54.350;10.102;2023-04-01T05:20:31;8.80;99.90
6293;DHT22;3179;54.350;10.102;2023-04-01T05:22:59;8.90;99.90
6293;DHT22;3179;54.350;10.102;2023-04-01T05:25:26;8.90;99.90
6293;DHT22;3179;54.350;10.102;2023-04-01T05:27:54;8.80;99.90
6293;DHT22;3179;54.350;10.102;2023-04-01T05:30:21;8.80;99.90
6293;DHT22;3179;54.350;10.102;2023-04-01T05:32:48;8.80;99.90
6293;DHT22;3179;54.350;10.102;2023-04-01T05:35:15;8.80;99.90
6293;DHT22;3179;54.350;10.102;2023-04-01T05:37:42;8.80;99.90
6293;DHT22;3179;54.350;10.102;2023-04-01T05:40:09;8.80;99.90
6293;DHT22;3179;54.350;10.102;2023-04-01T05:42:36;8.80;99.90
6293;DHT22;3179;54.350;10.102;2023-04-01T05:45:06;8.80;99.90
6293;DHT22;3179;54.350;10.102;2023-04-01T05:47:33;8.80;99.90
6293;DHT22;3179;54.350;10.102;2023-04-01T05:49:59;8.80;99.90
6293;DHT22;3179;54.350;10.102;2023-04-01T05:52:26;8.80;99.90
6293;DHT22;3179;54.350;10.102;2023-04-01T05:54:53;8.70;99.90
6293;DHT22;3179;54.350;10.102;2023-04-01T05:57:20;8.70;99.90
6293;DHT22;3179;54.350;10.102;2023-04-01T05:59:47;8.70;99.90
6293;DHT22;3179;54.350;10.102;2023-04-01T06:02:17;8.70;99.90
6293;DHT22;3179;54.350;10.102;2023-04-01T06:04:44;8.70;99.90
6293;DHT22;3179;54.350;10.102;2023-04-01T06:07:11;8.60;99.90
6293;DHT22;3179;54.350;10.102;2023-04-01T06:09:39;8.60;99.90
6293;DHT22;3179;54.350;10.102;2023-04-01T06:12:30;8.60;99.90
6293;DHT22;3179;54.350;10.102;2023-04-01T06:15:19;8.50;99.90
6293;DHT22;3179;54.350;10.102;2023-04-01T06:18:08;8.50;99.90
6293;DHT22;3179;54.350;10.102;2023-04-01T06:20:44;8.60;99.90
6293;DHT22;3179;54.350;10.102;2023-04-01T06:23:26;8.50;99.90
6293;DHT22;3179;54.350;10.102;2023-04-01T06:26:14;8.50;99.90
6293;DHT22;3179;54.350;10.102;2023-04-01T06:29:00;8.50;99.90
6293;DHT22;3179;54.350;10.102;2023-04-01T06:31:46;8.60;99.90
6293;DHT22;3179;54.350;10.102;2023-04-01T06:34:41;8.70;99.90
6293;DHT22;3179;54.350;10.102;2023-04-01T06:37:23;8.60;99.90
6293;DHT22;3179;54.350;10.102;2023-04-01T06:40:11;8.60;99.90
6293;DHT22;3179;54.350;10.102;2023-04-01T06:43:04;8.60;99.90
6293;DHT22;3179;54.350;10.102;2023-04-01T06:45:39;8.60;99.90
6293;DHT22;3179;54.350;10.102;2023-04-01T06:48:21;8.60;99.90
6293;DHT22;3179;54.350;10.102;2023-04-01T06:50:58;8.50;99.90
6293;DHT22;3179;54.350;10.102;2023-04-01T06:53:34;8.50;99.90
6293;DHT22;3179;54.350;10.102;2023-04-01T06:56:05;8.50;99.90
6293;DHT22;3179;54.350;10.102;2023-04-01T06:58:36;8.50;99.90
6293;DHT22;3179;54.350;10.102;2023-04-01T07:01:07;8.50;99.90
6293;DHT22;3179;54.350;10.102;2023-04-01T07:03:38;8.40;99.90
6293;DHT22;3179;54.350;10.102;2023-04-01T07:06:10;8.40;99.90
6293;DHT22;3179;54.350;10.102;2023-04-01T07:08:41;8.50;99.90
6293;DHT22;3179;54.350;10.102;2023-04-01T07:11:11;8.50;99.90
6293;DHT22;3179;54.350;10.102;2023-04-01T07:13:46;8.50;99.90
6293;DHT22;3179;54.350;10.102;2023-04-01T07:16:18;8.50;99.90
6293;DHT22;3179;54.350;10.102;2023-04-01T07:18:48;8.40;99.90
6293;DHT22;3179;54.350;10.102;2023-04-01T07:21:24;8.40;99.90
6293;DHT22;3179;54.350;10.102;2023-04-01T07:23:54;8.40;99.90
6293;DHT22;3179;54.350;10.102;2023-04-01T07:26:22;8.50;99.90
6293;DHT22;3179;54.350;10.102;2023-04-01T07:28:51;8.50;99.90
6293;DHT22;3179;54.350;10.102;2023-04-01T07:31:32;8.50;99.90
6293;DHT22;3179;54.350;10.102;2023-04-01T07:34:05;8.60;99.90
6293;DHT22;3179;54.350;10.102;2023-04-01T07:36:41;8.50;99.90
6293;DHT22;3179;54.350;10.102;2023-04-01T07:39:20;8.50;99.90
6293;DHT22;3179;54.350;10.102;2023-04-01T07:41:53;8.40;99.90
6293;DHT22;3179;54.350;10.102;2023-04-01T07:44:28;8.30;99.90
6293;DHT22;3179;54.350;10.102;2023-04-01T07:47:10;8.30;99.90
6293;DHT22;3179;54.350;10.102;2023-04-01T07:49:48;8.30;99.90
6293;DHT22;3179;54.350;10.102;2023-04-01T07:52:22;8.20;99.90
6293;DHT22;3179;54.350;10.102;2023-04-01T07:54:55;8.30;99.90
6293;DHT22;3179;54.350;10.102;2023-04-01T07:57:29;8.30;99.90
6293;DHT22;3179;54.350;10.102;2023-04-01T08:00:03;8.40;99.90
6293;DHT22;3179;54.350;10.102;2023-04-01T08:02:44;8.40;99.90
6293;DHT22;3179;54.350;10.102;2023-04-01T08:05:22;8.40;99.90
6293;DHT22;3179;54.350;10.102;2023-04-01T08:07:59;8.30;99.90
6293;DHT22;3179;54.350;10.102;2023-04-01T08:10:38;8.40;99.90
6293;DHT22;3179;54.350;10.102;2023-04-01T08:13:13;8.30;99.90
6293;DHT22;3179;54.350;10.102;2023-04-01T08:15:48;8.30;99.90
6293;DHT22;3179;54.350;10.102;2023-04-01T08:18:26;8.30;99.90
6293;DHT22;3179;54.350;10.102;2023-04-01T08:20:59;8.30;99.90
6293;DHT22;3179;54.350;10.102;2023-04-01T08:23:31;8.30;99.90
6293;DHT22;3179;54.350;10.102;2023-04-01T08:26:03;8.30;99.90
6293;DHT22;3179;54.350;10.102;2023-04-01T08:28:36;8.30;99.90
6293;DHT22;3179;54.350;10.102;2023-04-01T08:31:10;8.30;99.90
6293;DHT22;3179;54.350;10.102;2023-04-01T08:33:40;8.30;99.90
6293;DHT22;3179;54.350;10.102;2023-04-01T08:36:11;8.30;99.90
6293;DHT22;3179;54.350;10.102;2023-04-01T08:38:42;8.30;99.90
6293;DHT22;3179;54.350;10.102;2023-04-01T08:41:32;8.30;99.90
6293;DHT22;3179;54.350;10.102;2023-04-01T08:44:24;8.20;99.90
6293;DHT22;3179;54.350;10.102;2023-04-01T08:47:17;8.30;99.90
6293;DHT22;3179;54.350;10.102;2023-04-01T08:50:01;8.30;99.90
6293;DHT22;3179;54.350;10.102;2023-04-01T08:52:35;8.20;99.90
6293;DHT22;3179;54.350;10.102;2023-04-01T08:55:17;8.20;99.90
6293;DHT22;3179;54.350;10.102;2023-04-01T08:57:58;8.20;99.90
6293;DHT22;3179;54.350;10.102;2023-04-01T09:00:31;8.10;99.90
6293;DHT22;3179;54.350;10.102;2023-04-01T09:03:22;8.10;99.90
6293;DHT22;3179;54.350;10.102;2023-04-01T09:06:24;8.10;99.90
6293;DHT22;3179;54.350;10.102;2023-04-01T09:09:03;8.10;99.90
6293;DHT22;3179;54.350;10.102;2023-04-01T09:11:42;8.10;99.90
6293;DHT22;3179;54.350;10.102;2023-04-01T09:14:36;8.00;99.90
6293;DHT22;3179;54.350;10.102;2023-04-01T09:17:29;8.00;99.90
6293;DHT22;3179;54.350;10.102;2023-04-01T09:20:20;8.00;99.90
6293;DHT22;3179;54.350;10.102;2023-04-01T09:23:10;7.90;99.90
6293;DHT22;3179;54.350;10.102;2023-04-01T09:25:46;8.00;99.90
6293;DHT22;3179;54.350;10.102;2023-04-01T09:28:20;8.00;99.90
6293;DHT22;3179;54.350;10.102;2023-04-01T09:31:32;8.00;99.90
6293;DHT22;3179;54.350;10.102;2023-04-01T09:34:24;8.00;99.90
6293;DHT22;3179;54.350;10.102;2023-04-01T09:37:06;7.90;99.90
6293;DHT22;3179;54.350;10.102;2023-04-01T09:39:37;7.90;99.90
6293;DHT22;3179;54.350;10.102;2023-04-01T09:42:41;7.80;99.90
6293;DHT22;3179;54.350;10.102;2023-04-01T09:45:21;7.90;99.90
6293;DHT22;3179;54.350;10.102;2023-04-01T09:48:00;7.90;99.90
6293;DHT22;3179;54.350;10.102;2023-04-01T09:50:38;7.80;99.90
6293;DHT22;3179;54.350;10.102;2023-04-01T09:53:25;7.90;99.90
6293;DHT22;3179;54.350;10.102;2023-04-01T09:56:24;7.90;99.90
6293;DHT22;3179;54.350;10.102;2023-04-01T09:59:28;7.90;99.90
6293;DHT22;3179;54.350;10.102;2023-04-01T10:08:31;7.90;99.90
6293;DHT22;3179;54.350;10.102;2023-04-01T10:11:28;8.00;99.90
6293;DHT22;3179;54.350;10.102;2023-04-01T10:14:21;8.00;99.90
6293;DHT22;3179;54.350;10.102;2023-04-01T10:17:21;8.00;99.90
6293;DHT22;3179;54.350;10.102;2023-04-01T10:20:15;8.00;99.90
6293;DHT22;3179;54.350;10.102;2023-04-01T10:23:02;8.00;99.90
6293;DHT22;3179;54.350;10.102;2023-04-01T10:28:55;7.90;99.90
6293;DHT22;3179;54.350;10.102;2023-04-01T10:31:50;7.90;99.90
6293;DHT22;3179;54.350;10.102;2023-04-01T10:35:03;7.90;99.90
6293;DHT22;3179;54.350;10.102;2023-04-01T10:40:57;7.80;99.90
6293;DHT22;3179;54.350;10.102;2023-04-01T10:43:52;7.80;99.90
6293;DHT22;3179;54.350;10.102;2023-04-01T10:49:57;7.80;99.90
6293;DHT22;3179;54.350;10.102;2023-04-01T11:05:26;7.70;99.90
6293;DHT22;3179;54.350;10.102;2023-04-01T11:14:35;7.60;99.90
6293;DHT22;3179;54.350;10.102;2023-04-01T11:20:33;7.60;99.90
6293;DHT22;3179;54.350;10.102;2023-04-01T11:23:46;7.70;99.90
6293;DHT22;3179;54.350;10.102;2023-04-01T11:26:33;7.80;99.90
6293;DHT22;3179;54.350;10.102;2023-04-01T11:29:25;7.90;99.90
6293;DHT22;3179;54.350;10.102;2023-04-01T11:32:04;8.10;99.90
6293;DHT22;3179;54.350;10.102;2023-04-01T11:34:50;8.10;99.90
6293;DHT22;3179;54.350;10.102;2023-04-01T11:37:35;8.10;99.90
6293;DHT22;3179;54.350;10.102;2023-04-01T11:40:14;8.10;99.90
6293;DHT22;3179;54.350;10.102;2023-04-01T11:42:51;8.00;99.90
6293;DHT22;3179;54.350;10.102;2023-04-01T11:45:30;7.90;99.90
6293;DHT22;3179;54.350;10.102;2023-04-01T11:48:12;8.00;99.90
6293;DHT22;3179;54.350;10.102;2023-04-01T11:50:56;8.00;99.90
6293;DHT22;3179;54.350;10.102;2023-04-01T11:53:34;7.90;99.90
6293;DHT22;3179;54.350;10.102;2023-04-01T11:56:21;7.90;99.90
6293;DHT22;3179;54.350;10.102;2023-04-01T11:59:23;8.00;99.90
6293;DHT22;3179;54.350;10.102;2023-04-01T12:02:03;7.90;99.90
6293;DHT22;3179;54.350;10.102;2023-04-01T12:04:54;7.90;99.90
6293;DHT22;3179;54.350;10.102;2023-04-01T12:10:32;7.80;99.90
6293;DHT22;3179;54.350;10.102;2023-04-01T12:13:06;7.80;99.90
6293;DHT22;3179;54.350;10.102;2023-04-01T12:15:43;7.90;99.90
6293;DHT22;3179;54.350;10.102;2023-04-01T12:18:18;7.90;99.90
6293;DHT22;3179;54.350;10.102;2023-04-01T12:20:49;7.80;99.90
6293;DHT22;3179;54.350;10.102;2023-04-01T12:23:46;7.80;99.90
6293;DHT22;3179;54.350;10.102;2023-04-01T12:26:29;7.90;99.90
6293;DHT22;3179;54.350;10.102;2023-04-01T12:31:59;8.00;99.90
6293;DHT22;3179;54.350;10.102;2023-04-01T12:34:52;8.00;99.90
6293;DHT22;3179;54.350;10.102;2023-04-01T12:37:29;8.00;99.90
6293;DHT22;3179;54.350;10.102;2023-04-01T12:40:16;8.10;99.90
6293;DHT22;3179;54.350;10.102;2023-04-01T12:42:57;8.00;99.90
6293;DHT22;3179;54.350;10.102;2023-04-01T12:45:30;7.90;99.90
6293;DHT22;3179;54.350;10.102;2023-04-01T12:48:08;7.80;99.90
6293;DHT22;3179;54.350;10.102;2023-04-01T12:50:58;7.90;99.90
6293;DHT22;3179;54.350;10.102;2023-04-01T12:53:39;7.90;99.90
6293;DHT22;3179;54.350;10.102;2023-04-01T12:56:14;7.90;99.90
6293;DHT22;3179;54.350;10.102;2023-04-01T12:59:01;8.00;99.90
6293;DHT22;3179;54.350;10.102;2023-04-01T13:04:37;8.00;99.90
6293;DHT22;3179;54.350;10.102;2023-04-01T13:07:29;8.00;99.90
6293;DHT22;3179;54.350;10.102;2023-04-01T13:10:04;7.90;99.90
6293;DHT22;3179;54.350;10.102;2023-04-01T13:12:50;7.90;99.90
6293;DHT22;3179;54.350;10.102;2023-04-01T13:15:28;7.90;99.90
6293;DHT22;3179;54.350;10.102;2023-04-01T13:18:05;7.80;99.90
6293;DHT22;3179;54.350;10.102;2023-04-01T13:20:44;7.80;99.90
6293;DHT22;3179;54.350;10.102;2023-04-01T13:23:29;7.90;99.90
6293;DHT22;3179;54.350;10.102;2023-04-01T13:26:06;7.90;99.90
6293;DHT22;3179;54.350;10.102;2023-04-01T13:28:39;7.90;99.90
6293;DHT22;3179;54.350;10.102;2023-04-01T13:31:14;7.90;99.90
6293;DHT22;3179;54.350;10.102;2023-04-01T13:33:53;7.90;99.90
6293;DHT22;3179;54.350;10.102;2023-04-01T13:36:28;7.90;99.90
6293;DHT22;3179;54.350;10.102;2023-04-01T13:39:24;7.80;99.90
6293;DHT22;3179;54.350;10.102;2023-04-01T13:42:10;7.70;99.90
6293;DHT22;3179;54.350;10.102;2023-04-01T13:44:42;7.80;99.90
6293;DHT22;3179;54.350;10.102;2023-04-01T13:47:29;7.80;99.90
6293;DHT22;3179;54.350;10.102;2023-04-01T13:50:33;7.80;99.90
6293;DHT22;3179;54.350;10.102;2023-04-01T13:53:28;7.80;99.90
6293;DHT22;3179;54.350;10.102;2023-04-01T13:56:13;7.70;99.90
6293;DHT22;3179;54.350;10.102;2023-04-01T13:59:10;7.80;99.90
6293;DHT22;3179;54.350;10.102;2023-04-01T14:01:46;7.70;99.90
6293;DHT22;3179;54.350;10.102;2023-04-01T14:04:42;7.60;99.90
6293;DHT22;3179;54.350;10.102;2023-04-01T14:10:12;7.60;99.90
6293;DHT22;3179;54.350;10.102;2023-04-01T14:12:47;7.70;99.90
6293;DHT22;3179;54.350;10.102;2023-04-01T14:15:48;7.70;99.90
6293;DHT22;3179;54.350;10.102;2023-04-01T14:18:32;7.70;99.90
6293;DHT22;3179;54.350;10.102;2023-04-01T14:24:12;7.60;99.90
6293;DHT22;3179;54.350;10.102;2023-04-01T14:30:16;7.60;99.90
6293;DHT22;3179;54.350;10.102;2023-04-01T14:32:51;7.60;99.90
6293;DHT22;3179;54.350;10.102;2023-04-01T14:35:28;7.70;99.90
6293;DHT22;3179;54.350;10.102;2023-04-01T14:38:27;7.70;99.90
6293;DHT22;3179;54.350;10.102;2023-04-01T14:41:06;7.70;99.90
6293;DHT22;3179;54.350;10.102;2023-04-01T14:43:48;7.80;99.90
6293;DHT22;3179;54.350;10.102;2023-04-01T14:46:51;7.80;99.90
6293;DHT22;3179;54.350;10.102;2023-04-01T14:49:29;7.90;99.90
6293;DHT22;3179;54.350;10.102;2023-04-01T14:52:04;7.90;99.90
6293;DHT22;3179;54.350;10.102;2023-04-01T14:54:35;7.80;99.90
6293;DHT22;3179;54.350;10.102;2023-04-01T14:57:10;7.80;99.90
6293;DHT22;3179;54.350;10.102;2023-04-01T14:59:40;7.80;99.90
6293;DHT22;3179;54.350;10.102;2023-04-01T15:02:24;7.70;99.90
6293;DHT22;3179;54.350;10.102;2023-04-01T15:05:00;7.70;99.90
6293;DHT22;3179;54.350;10.102;2023-04-01T15:08:00;7.70;99.90
6293;DHT22;3179;54.350;10.102;2023-04-01T15:10:59;7.70;99.90
6293;DHT22;3179;54.350;10.102;2023-04-01T15:14:01;7.60;99.90
6293;DHT22;3179;54.350;10.102;2023-04-01T15:16:34;7.60;99.90
6293;DHT22;3179;54.350;10.102;2023-04-01T15:19:18;7.70;99.90
6293;DHT22;3179;54.350;10.102;2023-04-01T15:24:47;7.70;99.90
6293;DHT22;3179;54.350;10.102;2023-04-01T15:27:28;7.70;99.90
6293;DHT22;3179;54.350;10.102;2023-04-01T15:30:21;7.70;99.90
6293;DHT22;3179;54.350;10.102;2023-04-01T15:35:44;7.70;99.90
6293;DHT22;3179;54.350;10.102;2023-04-01T15:38:21;7.70;99.90
6293;DHT22;3179;54.350;10.102;2023-04-01T15:40:54;7.80;99.90
6293;DHT22;3179;54.350;10.102;2023-04-01T15:43:31;7.80;99.90
6293;DHT22;3179;54.350;10.102;2023-04-01T15:46:15;7.70;99.90
6293;DHT22;3179;54.350;10.102;2023-04-01T15:48:57;7.70;99.90
6293;DHT22;3179;54.350;10.102;2023-04-01T15:51:48;7.80;99.90
6293;DHT22;3179;54.350;10.102;2023-04-01T15:54:31;7.70;99.90
6293;DHT22;3179;54.350;10.102;2023-04-01T15:57:25;7.70;99.90
6293;DHT22;3179;54.350;10.102;2023-04-01T16:00:06;7.70;99.90
6293;DHT22;3179;54.350;10.102;2023-04-01T16:02:43;7.60;99.90
6293;DHT22;3179;54.350;10.102;2023-04-01T16:05:30;7.60;99.90
6293;DHT22;3179;54.350;10.102;2023-04-01T16:11:17;7.60;99.90
6293;DHT22;3179;54.350;10.102;2023-04-01T16:13:53;7.70;99.90
6293;DHT22;3179;54.350;10.102;2023-04-01T16:16:31;7.70;99.90
6293;DHT22;3179;54.350;10.102;2023-04-01T16:19:23;7.80;99.90
6293;DHT22;3179;54.350;10.102;2023-04-01T16:21:57;7.80;99.90
6293;DHT22;3179;54.350;10.102;2023-04-01T16:24:34;7.90;99.90
6293;DHT22;3179;54.350;10.102;2023-04-01T16:27:05;7.90;99.90
6293;DHT22;3179;54.350;10.102;2023-04-01T16:29:40;7.90;99.90
6293;DHT22;3179;54.350;10.102;2023-04-01T16:32:31;7.80;99.90
6293;DHT22;3179;54.350;10.102;2023-04-01T16:35:20;7.80;99.90
6293;DHT22;3179;54.350;10.102;2023-04-01T16:37:51;7.80;99.90
6293;DHT22;3179;54.350;10.102;2023-04-01T16:40:32;7.80;99.90
6293;DHT22;3179;54.350;10.102;2023-04-01T16:43:10;7.80;99.90
6293;DHT22;3179;54.350;10.102;2023-04-01T16:45:41;7.80;99.90
6293;DHT22;3179;54.350;10.102;2023-04-01T16:48:12;7.80;99.90
6293;DHT22;3179;54.350;10.102;2023-04-01T16:50:48;7.80;99.90
6293;DHT22;3179;54.350;10.102;2023-04-01T16:53:19;7.80;99.90
6293;DHT22;3179;54.350;10.102;2023-04-01T16:55:52;7.80;99.90
6293;DHT22;3179;54.350;10.102;2023-04-01T16:58:27;7.80;99.90
6293;DHT22;3179;54.350;10.102;2023-04-01T17:01:02;7.80;99.90
6293;DHT22;3179;54.350;10.102;2023-04-01T17:03:34;7.70;99.90
6293;DHT22;3179;54.350;10.102;2023-04-01T17:06:19;7.70;99.90
6293;DHT22;3179;54.350;10.102;2023-04-01T17:09:07;7.70;99.90
6293;DHT22;3179;54.350;10.102;2023-04-01T17:11:43;7.60;99.90
6293;DHT22;3179;54.350;10.102;2023-04-01T17:14:17;7.60;99.90
6293;DHT22;3179;54.350;10.102;2023-04-01T17:17:00;7.60;99.90
6293;DHT22;3179;54.350;10.102;2023-04-01T17:19:45;7.60;99.90
6293;DHT22;3179;54.350;10.102;2023-04-01T17:22:26;7.60;99.90
6293;DHT22;3179;54.350;10.102;2023-04-01T17:25:05;7.60;99.90
6293;DHT22;3179;54.350;10.102;2023-04-01T17:27:42;7.60;99.90
6293;DHT22;3179;54.350;10.102;2023-04-01T17:30:26;7.50;99.90
6293;DHT22;3179;54.350;10.102;2023-04-01T17:33:14;7.40;99.90
6293;DHT22;3179;54.350;10.102;2023-04-01T17:35:55;7.40;99.90
6293;DHT22;3179;54.350;10.102;2023-04-01T17:41:32;7.40;99.90
6293;DHT22;3179;54.350;10.102;2023-04-01T17:44:15;7.40;99.90
6293;DHT22;3179;54.350;10.102;2023-04-01T17:46:56;7.30;99.90
6293;DHT22;3179;54.350;10.102;2023-04-01T17:49:31;7.30;99.90
6293;DHT22;3179;54.350;10.102;2023-04-01T17:52:06;7.30;99.90
6293;DHT22;3179;54.350;10.102;2023-04-01T17:54:39;7.20;99.90
6293;DHT22;3179;54.350;10.102;2023-04-01T17:57:23;7.20;99.90
6293;DHT22;3179;54.350;10.102;2023-04-01T18:00:01;7.10;99.90
6293;DHT22;3179;54.350;10.102;2023-04-01T18:02:36;7.10;99.90
6293;DHT22;3179;54.350;10.102;2023-04-01T18:05:24;7.00;99.90
6293;DHT22;3179;54.350;10.102;2023-04-01T18:08:17;7.00;99.90
6293;DHT22;3179;54.350;10.102;2023-04-01T18:11:00;7.00;99.90
6293;DHT22;3179;54.350;10.102;2023-04-01T18:16:57;7.00;99.90
6293;DHT22;3179;54.350;10.102;2023-04-01T18:19:32;7.10;99.90